Time;durP1;ratioP1;P1;durP2;ratioP2;P2;SDS_P1;SDS_P2;PMS_P1;PMS_P2;Temp;Humidity;BMP_temperature;BMP_pressure;BME280_temperature;BME280_humidity;BME280_pressure;Samples;Min_cycle;Max_cycle;Signal;HPM_P1;HPM_P2
2023/02/25 00:01:08;;;;;;;18.80;3.08;;;5.00;99.90;;;;;;4861061;29;20040;-95
2023/02/25 00:03:35;;;;;;;26.33;4.97;;;5.00;99.90;;;;;;4882766;29;20053;-95
2023/02/25 00:06:01;;;;;;;28.77;4.60;;;5.00;99.90;;;;;;4856950;29;20132;-95
2023/02/25 00:08:28;;;;;;;28.52;4.38;;;5.00;99.90;;;;;;4880261;29;20051;-95
2023/02/25 00:11:00;;;;;;;26.95;4.05;;;5.00;99.90;;;;;;4862708;29;20084;-94
2023/02/25 00:13:27;;;;;;;22.92;3.60;;;5.00;99.90;;;;;;4863332;29;20037;-95
2023/02/25 00:15:53;;;;;;;31.10;4.78;;;5.10;99.90;;;;;;4849502;29;20061;-96
2023/02/25 00:18:19;;;;;;;30.02;4.00;;;5.00;99.90;;;;;;4880208;29;20045;-96
2023/02/25 00:20:44;;;;;;;27.48;4.45;;;5.00;99.90;;;;;;4873528;29;20391;-96
2023/02/25 00:23:10;;;;;;;28.40;4.25;;;5.00;99.90;;;;;;4872800;29;20070;-96
2023/02/25 00:25:36;;;;;;;31.73;4.35;;;5.00;99.90;;;;;;4865319;29;20073;-95
2023/02/25 00:28:12;;;;;;;18.70;3.38;;;5.00;99.90;;;;;;4863756;29;20049;-95
2023/02/25 00:30:39;;;;;;;22.05;4.10;;;5.00;99.90;;;;;;4886375;29;20053;-94
2023/02/25 00:33:05;;;;;;;22.50;3.67;;;5.00;99.90;;;;;;4867143;29;20051;-95
2023/02/25 00:35:31;;;;;;;23.02;3.97;;;5.00;99.90;;;;;;4865143;29;20049;-95
2023/02/25 00:37:57;;;;;;;24.63;3.83;;;5.00;99.90;;;;;;4858907;29;20049;-94
2023/02/25 00:40:23;;;;;;;26.02;3.83;;;5.00;99.90;;;;;;4872748;29;20101;-96
2023/02/25 00:42:48;;;;;;;26.13;4.05;;;5.00;99.90;;;;;;4851324;29;20045;-95
2023/02/25 00:45:14;;;;;;;26.77;4.32;;;5.00;99.90;;;;;;4883747;29;20129;-96
2023/02/25 00:47:40;;;;;;;28.02;3.85;;;5.00;99.90;;;;;;4879038;29;20045;-96
2023/02/25 00:50:08;;;;;;;24.17;4.10;;;5.00;99.90;;;;;;4879793;29;20048;-96
2023/02/25 00:52:35;;;;;;;24.77;3.97;;;5.00;99.90;;;;;;4880174;29;20081;-96
2023/02/25 00:55:01;;;;;;;18.40;2.85;;;5.00;99.90;;;;;;4865460;29;20044;-96
2023/02/25 00:57:26;;;;;;;26.63;3.70;;;5.00;99.90;;;;;;4855804;29;20045;-95
2023/02/25 00:59:52;;;;;;;26.55;3.70;;;5.00;99.90;;;;;;4846968;29;20160;-94
2023/02/25 01:02:18;;;;;;;23.40;3.50;;;5.00;99.90;;;;;;4861431;29;20129;-94
2023/02/25 01:04:43;;;;;;;28.67;3.35;;;5.00;99.90;;;;;;4861518;29;20051;-95
2023/02/25 01:07:10;;;;;;;30.05;4.07;;;5.00;99.90;;;;;;4876999;29;20049;-95
2023/02/25 01:09:36;;;;;;;16.45;3.50;;;5.00;99.90;;;;;;4881289;29;20041;-93
2023/02/25 01:12:02;;;;;;;25.95;3.72;;;5.00;99.90;;;;;;4864601;29;20563;-93
2023/02/25 01:14:27;;;;;;;28.02;3.75;;;5.00;99.90;;;;;;4881262;29;20117;-94
2023/02/25 01:16:56;;;;;;;20.33;3.40;;;5.00;99.90;;;;;;4864450;29;20056;-94
2023/02/25 01:19:24;;;;;;;24.77;3.85;;;5.00;99.90;;;;;;4875277;29;20129;-94
2023/02/25 01:21:53;;;;;;;27.63;3.50;;;5.00;99.90;;;;;;4864040;29;20045;-95
2023/02/25 01:24:30;;;;;;;23.08;3.25;;;5.00;99.90;;;;;;4881331;29;20052;-96
2023/02/25 01:26:58;;;;;;;23.20;4.05;;;5.00;99.90;;;;;;4880464;29;20089;-94
2023/02/25 01:29:37;;;;;;;19.73;3.17;;;5.00;99.90;;;;;;4846220;29;20045;-93
2023/02/25 01:32:05;;;;;;;22.95;3.30;;;5.00;99.90;;;;;;4862684;29;20457;-95
2023/02/25 01:34:31;;;;;;;29.23;3.63;;;5.00;99.90;;;;;;4849885;29;20045;-95
2023/02/25 01:36:58;;;;;;;22.33;3.50;;;5.00;99.90;;;;;;4872829;29;20553;-95
2023/02/25 01:39:25;;;;;;;20.55;3.15;;;5.00;99.90;;;;;;4875806;29;20048;-95
2023/02/25 01:41:54;;;;;;;19.02;3.00;;;5.00;99.90;;;;;;4875813;29;20055;-93
2023/02/25 01:44:27;;;;;;;27.65;3.65;;;5.00;99.90;;;;;;4847581;29;20045;-96
2023/02/25 01:46:54;;;;;;;25.42;3.45;;;5.00;99.90;;;;;;4853454;29;20049;-96
2023/02/25 01:49:36;;;;;;;26.75;3.95;;;5.10;99.90;;;;;;4866548;29;20037;-96
2023/02/25 01:52:21;;;;;;;26.45;3.42;;;5.00;99.90;;;;;;4887570;29;20093;-96
2023/02/25 01:54:54;;;;;;;24.92;3.80;;;5.00;99.90;;;;;;4857419;29;20049;-95
2023/02/25 01:57:20;;;;;;;24.73;3.53;;;5.00;99.90;;;;;;4874727;29;20053;-96
2023/02/25 01:59:47;;;;;;;20.33;3.30;;;5.00;99.90;;;;;;4860337;29;20049;-94
2023/02/25 02:02:21;;;;;;;21.05;3.50;;;5.00;99.90;;;;;;4851156;29;20076;-95
2023/02/25 02:04:49;;;;;;;18.90;3.17;;;5.00;99.90;;;;;;4889918;29;20469;-96
2023/02/25 02:07:15;;;;;;;23.98;3.35;;;5.00;99.90;;;;;;4882299;29;20053;-95
2023/02/25 02:09:54;;;;;;;27.20;3.80;;;5.00;99.90;;;;;;4883759;29;20045;-96
2023/02/25 02:12:24;;;;;;;28.38;3.83;;;5.00;99.90;;;;;;4865667;29;20053;-96
2023/02/25 02:14:51;;;;;;;22.67;4.13;;;5.00;99.90;;;;;;4865300;29;20401;-94
2023/02/25 02:17:28;;;;;;;24.83;3.50;;;5.00;99.90;;;;;;4865604;29;20061;-96
2023/02/25 02:20:21;;;;;;;27.75;3.83;;;5.10;99.90;;;;;;4866267;29;20049;-94
2023/02/25 02:22:58;;;;;;;25.02;4.10;;;5.10;99.90;;;;;;4865227;29;20486;-96
2023/02/25 02:25:51;;;;;;;29.60;3.95;;;5.10;99.90;;;;;;4863913;29;20165;-94
2023/02/25 02:28:34;;;;;;;32.40;4.50;;;5.10;99.90;;;;;;4880409;29;20045;-93
2023/02/25 02:31:19;;;;;;;23.38;4.40;;;5.10;99.90;;;;;;4880871;29;20413;-95
2023/02/25 02:33:54;;;;;;;17.90;2.80;;;5.10;99.90;;;;;;4880992;29;20056;-95
2023/02/25 02:36:41;;;;;;;20.10;3.58;;;5.00;99.90;;;;;;4863967;29;20144;-96
2023/02/25 02:39:28;;;;;;;22.00;3.10;;;5.00;99.90;;;;;;4880918;29;20128;-93
2023/02/25 02:42:15;;;;;;;23.77;3.65;;;5.10;99.90;;;;;;4880609;29;20545;-92
2023/02/25 02:45:10;;;;;;;21.95;3.30;;;5.10;99.90;;;;;;4863824;29;20053;-94
2023/02/25 02:47:48;;;;;;;18.35;3.03;;;5.00;99.90;;;;;;4863584;29;20140;-94
2023/02/25 02:50:26;;;;;;;25.52;3.50;;;5.10;99.90;;;;;;4863889;29;20045;-94
2023/02/25 02:52:55;;;;;;;22.48;3.33;;;5.00;99.90;;;;;;4864102;29;20048;-95
2023/02/25 02:55:23;;;;;;;26.33;3.80;;;5.10;99.90;;;;;;4863950;29;20041;-94
2023/02/25 02:57:53;;;;;;;25.45;3.28;;;5.00;99.90;;;;;;4863707;29;20497;-94
2023/02/25 03:00:25;;;;;;;23.27;3.38;;;5.10;99.90;;;;;;4861624;29;20041;-93
2023/02/25 03:03:04;;;;;;;21.38;3.30;;;5.10;99.90;;;;;;4863585;29;20048;-96
2023/02/25 03:05:33;;;;;;;20.23;3.17;;;5.10;99.90;;;;;;4863729;29;20105;-95
2023/02/25 03:08:10;;;;;;;25.92;3.45;;;5.10;99.90;;;;;;4879991;29;20084;-94
2023/02/25 03:10:36;;;;;;;23.77;3.60;;;5.10;99.90;;;;;;4863495;29;20126;-94
2023/02/25 03:13:02;;;;;;;17.15;2.90;;;5.10;99.90;;;;;;4866324;29;20057;-94
2023/02/25 03:15:28;;;;;;;20.08;2.58;;;5.10;99.90;;;;;;4866318;29;20183;-94
2023/02/25 03:17:59;;;;;;;15.38;3.38;;;5.10;99.90;;;;;;4867124;29;20060;-95
2023/02/25 03:20:39;;;;;;;16.45;2.38;;;5.10;99.90;;;;;;4866941;29;20084;-93
2023/02/25 03:23:10;;;;;;;18.42;3.25;;;5.00;99.90;;;;;;4883494;29;20041;-93
2023/02/25 03:25:46;;;;;;;17.77;3.22;;;5.00;99.90;;;;;;4866261;29;20508;-93
2023/02/25 03:28:31;;;;;;;20.40;3.17;;;5.00;99.90;;;;;;4866249;29;20049;-93
2023/02/25 03:31:06;;;;;;;16.77;2.97;;;5.00;99.90;;;;;;4868199;29;20478;-95
2023/02/25 03:33:48;;;;;;;16.08;2.97;;;5.00;99.90;;;;;;4848945;29;20101;-94
2023/02/25 03:36:39;;;;;;;19.73;2.88;;;4.90;99.90;;;;;;4848537;29;20046;-95
2023/02/25 03:39:09;;;;;;;18.70;2.78;;;4.90;99.90;;;;;;4864810;29;20049;-94
2023/02/25 03:41:38;;;;;;;20.35;2.83;;;4.90;99.90;;;;;;4847929;29;20049;-94
2023/02/25 03:44:09;;;;;;;13.15;2.33;;;4.90;99.90;;;;;;4861067;29;20048;-93
2023/02/25 03:46:37;;;;;;;17.77;2.78;;;4.90;99.90;;;;;;4865903;29;20087;-93
2023/02/25 03:49:05;;;;;;;13.43;2.30;;;4.90;99.90;;;;;;4864505;29;20128;-93
2023/02/25 03:51:34;;;;;;;14.80;2.67;;;4.90;99.90;;;;;;4866145;29;20078;-93
2023/02/25 03:54:01;;;;;;;21.25;2.63;;;4.90;99.90;;;;;;4882777;29;20048;-94
2023/02/25 03:56:26;;;;;;;16.98;2.28;;;4.90;99.90;;;;;;4850693;29;20102;-94
2023/02/25 03:58:52;;;;;;;11.93;2.00;;;4.90;99.90;;;;;;4864253;29;20037;-93
2023/02/25 04:01:27;;;;;;;17.23;2.30;;;4.90;99.90;;;;;;4863142;29;20091;-94
2023/02/25 04:03:53;;;;;;;15.60;2.67;;;4.80;99.90;;;;;;4864119;29;20049;-94
2023/02/25 04:06:22;;;;;;;14.57;2.28;;;4.90;99.90;;;;;;4863500;29;20106;-94
2023/02/25 04:08:48;;;;;;;13.70;2.10;;;4.80;99.90;;;;;;4863003;29;20388;-94
2023/02/25 04:11:14;;;;;;;17.15;2.28;;;4.80;99.90;;;;;;4847061;29;20041;-94
2023/02/25 04:13:39;;;;;;;11.45;2.05;;;4.80;99.90;;;;;;4847419;29;20093;-94
2023/02/25 04:16:07;;;;;;;12.77;1.85;;;4.80;99.90;;;;;;4847252;29;20486;-95
2023/02/25 04:18:33;;;;;;;12.00;2.00;;;4.80;99.90;;;;;;4878775;29;20511;-94
2023/02/25 04:20:58;;;;;;;16.17;1.95;;;4.80;99.90;;;;;;4882407;29;20041;-94
2023/02/25 04:23:24;;;;;;;10.98;1.80;;;4.80;99.90;;;;;;4882151;29;20101;-92
2023/02/25 04:25:50;;;;;;;13.00;2.20;;;4.80;99.90;;;;;;4865699;29;20087;-94
2023/02/25 04:28:16;;;;;;;14.73;1.83;;;4.80;99.90;;;;;;4865401;29;20132;-93
2023/02/25 04:30:42;;;;;;;14.07;2.00;;;4.80;99.90;;;;;;4881207;29;20041;-94
2023/02/25 04:33:10;;;;;;;12.38;2.05;;;4.80;99.90;;;;;;4881696;29;20566;-93
2023/02/25 04:35:36;;;;;;;15.88;2.20;;;4.80;99.90;;;;;;4865143;29;20045;-93
2023/02/25 04:38:02;;;;;;;14.10;2.13;;;4.80;99.90;;;;;;4882142;29;20053;-94
2023/02/25 04:40:28;;;;;;;15.20;2.00;;;4.80;99.90;;;;;;4864959;29;20048;-94
2023/02/25 04:42:53;;;;;;;11.98;1.88;;;4.80;99.90;;;;;;4866341;29;20049;-94
2023/02/25 04:45:24;;;;;;;9.45;1.70;;;4.80;99.90;;;;;;4873171;29;20050;-94
2023/02/25 04:47:56;;;;;;;11.10;1.70;;;4.80;99.90;;;;;;4847988;29;20057;-95
2023/02/25 04:50:23;;;;;;;7.97;1.45;;;4.80;99.90;;;;;;4848003;29;20045;-94
2023/02/25 04:52:48;;;;;;;10.60;2.05;;;4.70;99.90;;;;;;4846808;29;20056;-93
2023/02/25 04:55:14;;;;;;;8.25;1.35;;;4.70;99.90;;;;;;4863390;29;20041;-95
2023/02/25 04:57:41;;;;;;;7.13;1.10;;;4.80;99.90;;;;;;4863395;29;20511;-94
2023/02/25 05:00:18;;;;;;;7.43;1.25;;;4.70;99.90;;;;;;4846842;29;20057;-95
2023/02/25 05:02:46;;;;;;;3.58;0.80;;;4.70;99.90;;;;;;4863081;29;20101;-95
2023/02/25 05:05:12;;;;;;;7.65;1.27;;;4.70;99.90;;;;;;4846455;29;20053;-95
2023/02/25 05:07:38;;;;;;;6.85;1.00;;;4.70;99.90;;;;;;4846523;29;20050;-94
2023/02/25 05:10:05;;;;;;;7.45;1.05;;;4.70;99.90;;;;;;4863038;29;20121;-94
2023/02/25 05:12:31;;;;;;;4.55;0.98;;;4.60;99.90;;;;;;4862652;29;20060;-96
2023/02/25 05:14:56;;;;;;;6.45;1.00;;;4.60;99.90;;;;;;4863748;29;20041;-94
2023/02/25 05:17:22;;;;;;;5.32;0.93;;;4.60;99.90;;;;;;4865086;29;20048;-94
2023/02/25 05:19:48;;;;;;;6.07;1.00;;;4.60;99.90;;;;;;4881403;29;20052;-96
2023/02/25 05:22:13;;;;;;;6.03;0.90;;;4.60;99.90;;;;;;4881087;29;20421;-93
2023/02/25 05:24:39;;;;;;;5.90;1.00;;;4.60;99.90;;;;;;4881368;29;20049;-95
2023/02/25 05:27:04;;;;;;;4.50;0.85;;;4.60;99.90;;;;;;4864143;29;20045;-96
2023/02/25 05:29:30;;;;;;;7.38;0.90;;;4.70;99.90;;;;;;4864066;29;20049;-93
2023/02/25 05:31:56;;;;;;;3.10;0.70;;;4.60;99.90;;;;;;4863873;29;20045;-93
2023/02/25 05:34:21;;;;;;;4.80;0.85;;;4.60;99.90;;;;;;4863798;29;20045;-94
2023/02/25 05:36:47;;;;;;;6.07;0.93;;;4.60;99.90;;;;;;4864389;29;20053;-94
2023/02/25 05:39:13;;;;;;;8.50;1.08;;;4.60;99.90;;;;;;4864256;29;20490;-93
2023/02/25 05:41:39;;;;;;;4.90;0.70;;;4.60;99.90;;;;;;4863868;29;20045;-93
2023/02/25 05:44:06;;;;;;;3.67;0.70;;;4.60;99.90;;;;;;4864687;29;20076;-93
2023/02/25 05:46:32;;;;;;;6.10;1.00;;;4.60;99.90;;;;;;4864249;29;20096;-93
2023/02/25 05:48:58;;;;;;;7.65;1.10;;;4.60;99.90;;;;;;4875198;29;20057;-92
2023/02/25 05:51:23;;;;;;;6.32;0.82;;;4.60;99.90;;;;;;4844959;29;20466;-93
2023/02/25 05:53:52;;;;;;;6.72;0.90;;;4.60;99.90;;;;;;4861200;29;20065;-92
2023/02/25 05:56:21;;;;;;;6.85;1.17;;;4.60;99.90;;;;;;4861573;29;20129;-94
2023/02/25 05:58:47;;;;;;;7.30;1.05;;;4.60;99.90;;;;;;4861835;29;20053;-93
2023/02/25 06:01:21;;;;;;;5.35;0.80;;;4.60;99.90;;;;;;4861682;29;20132;-94
2023/02/25 06:03:48;;;;;;;5.55;0.80;;;4.60;99.90;;;;;;4845414;29;20045;-94
2023/02/25 06:06:21;;;;;;;5.53;0.98;;;4.50;99.90;;;;;;4861893;29;20042;-93
2023/02/25 06:08:48;;;;;;;5.13;0.90;;;4.50;99.90;;;;;;4862018;29;20041;-94
2023/02/25 06:11:23;;;;;;;6.00;1.13;;;4.50;99.90;;;;;;4873859;29;20053;-94
2023/02/25 06:13:50;;;;;;;9.57;1.40;;;4.50;99.90;;;;;;4864516;29;20430;-93
2023/02/25 06:16:17;;;;;;;8.32;1.17;;;4.50;99.90;;;;;;4880599;29;20053;-95
2023/02/25 06:18:42;;;;;;;5.82;1.00;;;4.50;99.90;;;;;;4863826;29;20046;-93
2023/02/25 06:21:10;;;;;;;7.07;0.98;;;4.40;99.90;;;;;;4864083;29;20058;-94
2023/02/25 06:23:38;;;;;;;8.40;1.17;;;4.50;99.90;;;;;;4863704;29;20382;-94
2023/02/25 06:26:06;;;;;;;6.25;0.88;;;4.40;99.90;;;;;;4849784;29;20046;-93
2023/02/25 06:28:33;;;;;;;6.88;0.90;;;4.40;99.90;;;;;;4861523;29;20056;-93
2023/02/25 06:30:59;;;;;;;5.95;0.88;;;4.40;99.90;;;;;;4845298;29;20033;-93
2023/02/25 06:33:24;;;;;;;6.03;1.05;;;4.40;99.90;;;;;;4861864;29;20109;-94
2023/02/25 06:35:54;;;;;;;7.57;0.85;;;4.40;99.90;;;;;;4845516;29;20132;-94
2023/02/25 06:38:20;;;;;;;4.07;0.80;;;4.40;99.90;;;;;;4845556;29;20042;-94
2023/02/25 06:40:47;;;;;;;7.03;1.33;;;4.40;99.90;;;;;;4847382;29;20061;-95
2023/02/25 06:43:13;;;;;;;7.47;0.93;;;4.40;99.90;;;;;;4863922;29;20053;-95
2023/02/25 06:45:39;;;;;;;8.10;1.25;;;4.40;99.90;;;;;;4845483;29;20045;-94
2023/02/25 06:48:06;;;;;;;8.65;1.08;;;4.40;99.90;;;;;;4865542;29;20054;-95
2023/02/25 06:50:33;;;;;;;8.20;1.30;;;4.40;99.90;;;;;;4851675;29;20054;-94
2023/02/25 06:53:01;;;;;;;4.60;1.00;;;4.40;99.90;;;;;;4856382;29;20045;-94
2023/02/25 06:55:27;;;;;;;6.05;1.10;;;4.30;99.90;;;;;;4857152;29;20041;-93
2023/02/25 06:57:53;;;;;;;4.00;0.90;;;4.30;99.90;;;;;;4872855;29;20049;-94
2023/02/25 07:00:19;;;;;;;4.93;0.82;;;4.30;99.90;;;;;;4862390;29;20512;-92
2023/02/25 07:02:48;;;;;;;5.50;1.02;;;4.30;99.90;;;;;;4883416;29;20051;-95
2023/02/25 07:05:13;;;;;;;5.00;0.80;;;4.30;99.90;;;;;;4867124;29;20048;-95
2023/02/25 07:07:39;;;;;;;5.15;0.70;;;4.30;99.90;;;;;;4856150;29;20072;-94
2023/02/25 07:10:05;;;;;;;7.43;1.08;;;4.20;99.90;;;;;;4863744;29;20046;-95
2023/02/25 07:12:31;;;;;;;6.45;1.10;;;4.20;99.90;;;;;;4865803;29;20049;-95
2023/02/25 07:14:59;;;;;;;3.40;0.80;;;4.20;99.90;;;;;;4868489;29;20042;-95
2023/02/25 07:17:25;;;;;;;3.55;0.90;;;4.20;99.90;;;;;;4884568;29;20049;-96
2023/02/25 07:19:50;;;;;;;3.90;0.85;;;4.20;99.90;;;;;;4853229;29;20056;-96
2023/02/25 07:22:19;;;;;;;4.25;1.20;;;4.20;99.90;;;;;;4853051;29;20077;-94
2023/02/25 07:24:45;;;;;;;5.47;1.13;;;4.10;99.90;;;;;;4854776;29;20045;-94
2023/02/25 07:27:14;;;;;;;3.45;0.70;;;4.10;99.90;;;;;;4866912;29;20132;-94
2023/02/25 07:29:40;;;;;;;7.38;0.88;;;4.10;99.90;;;;;;4859251;29;20045;-91
2023/02/25 07:32:07;;;;;;;4.53;0.70;;;4.10;99.90;;;;;;4866270;29;20049;-94
2023/02/25 07:34:33;;;;;;;3.72;0.60;;;4.10;99.90;;;;;;4868785;29;20524;-95
2023/02/25 07:36:59;;;;;;;3.28;0.70;;;4.10;99.90;;;;;;4860333;29;20131;-96
2023/02/25 07:39:25;;;;;;;7.05;1.02;;;4.10;99.90;;;;;;4870285;29;20049;-95
2023/02/25 07:41:50;;;;;;;5.10;0.75;;;4.10;99.90;;;;;;4857838;29;20041;-94
2023/02/25 07:44:16;;;;;;;5.00;0.70;;;4.10;99.90;;;;;;4857859;29;20447;-95
2023/02/25 07:46:42;;;;;;;4.43;0.73;;;4.10;99.90;;;;;;4881227;29;20053;-95
2023/02/25 07:49:55;;;;;;;5.38;0.95;;;4.10;99.90;;;;;;4882857;29;20089;-91
2023/02/25 07:52:36;;;;;;;8.35;1.27;;;4.10;99.90;;;;;;4797424;29;20080;-95
2023/02/25 07:55:03;;;;;;;7.47;1.00;;;4.10;99.90;;;;;;4792569;29;20046;-95
2023/02/25 07:57:31;;;;;;;4.38;0.77;;;4.10;99.90;;;;;;4853503;29;20113;-92
2023/02/25 07:59:58;;;;;;;7.60;1.00;;;4.10;99.90;;;;;;4869704;29;20394;-92
2023/02/25 08:02:24;;;;;;;7.07;1.00;;;4.10;99.90;;;;;;4847883;29;20490;-93
2023/02/25 08:04:50;;;;;;;8.43;1.13;;;4.10;99.90;;;;;;4851497;29;20056;-93
2023/02/25 08:07:22;;;;;;;7.40;1.38;;;4.10;99.90;;;;;;4847781;29;20041;-93
2023/02/25 08:09:53;;;;;;;7.60;1.13;;;4.10;99.90;;;;;;4881777;29;20053;-93
2023/02/25 08:12:19;;;;;;;8.90;0.80;;;4.10;99.90;;;;;;4882926;29;20044;-94
2023/02/25 08:14:48;;;;;;;5.70;1.10;;;4.10;99.90;;;;;;4868060;29;20052;-92
2023/02/25 08:17:54;;;;;;;9.07;1.35;;;4.20;99.90;;;;;;4865050;29;20069;-92
2023/02/25 08:20:26;;;;;;;9.25;1.40;;;4.20;99.90;;;;;;4848324;29;20448;-94
2023/02/25 08:22:55;;;;;;;10.80;1.23;;;4.20;99.90;;;;;;4856858;29;20048;-95
2023/02/25 08:25:24;;;;;;;11.52;1.35;;;4.20;99.90;;;;;;4847193;29;20486;-94
2023/02/25 08:27:57;;;;;;;8.05;1.20;;;4.20;99.90;;;;;;4865897;29;20060;-95
2023/02/25 08:30:25;;;;;;;9.23;1.17;;;4.20;99.90;;;;;;4872931;29;20061;-96
2023/02/25 08:32:52;;;;;;;8.90;1.10;;;4.30;99.90;;;;;;4883049;29;20049;-95
2023/02/25 08:35:46;;;;;;;12.07;1.35;;;4.30;99.90;;;;;;4850985;29;20068;-94
2023/02/25 08:39:05;;;;;;;14.30;2.13;;;4.30;99.90;;;;;;4861882;29;20049;-95
2023/02/25 08:41:43;;;;;;;7.80;1.30;;;4.40;99.90;;;;;;4809203;29;20055;-93
2023/02/25 08:44:09;;;;;;;11.90;1.80;;;4.40;99.90;;;;;;4809118;29;20058;-93
2023/02/25 08:46:35;;;;;;;9.90;1.55;;;4.50;99.90;;;;;;4825430;29;20057;-92
2023/02/25 08:49:01;;;;;;;9.90;1.50;;;4.60;99.90;;;;;;4848963;29;20124;-89
2023/02/25 08:51:33;;;;;;;12.07;2.03;;;4.60;99.90;;;;;;4874618;29;20166;-88
2023/02/25 08:54:13;;;;;;;15.23;1.95;;;4.60;99.90;;;;;;4878917;29;20041;-89
2023/02/25 08:56:43;;;;;;;10.80;1.75;;;4.60;99.90;;;;;;4862143;29;20104;-94
2023/02/25 08:59:11;;;;;;;17.52;2.00;;;4.60;99.90;;;;;;4856689;29;20056;-93
2023/02/25 09:01:43;;;;;;;9.52;1.50;;;4.70;99.90;;;;;;4864273;29;20052;-90
2023/02/25 09:04:21;;;;;;;8.77;1.80;;;4.60;99.90;;;;;;4846195;29;20046;-87
2023/02/25 09:06:49;;;;;;;12.90;2.00;;;4.70;99.90;;;;;;4860260;29;20053;-87
2023/02/25 09:09:16;;;;;;;15.38;1.92;;;4.70;99.90;;;;;;4860277;29;20508;-87
2023/02/25 09:11:42;;;;;;;11.75;1.52;;;4.70;99.90;;;;;;4844466;29;20487;-86
2023/02/25 09:14:09;;;;;;;15.00;2.10;;;4.80;99.90;;;;;;4860654;29;20117;-88
2023/02/25 09:16:35;;;;;;;14.07;2.03;;;4.80;99.90;;;;;;4843804;29;20528;-87
2023/02/25 09:19:01;;;;;;;18.27;2.30;;;4.80;99.90;;;;;;4860586;29;20049;-87
2023/02/25 09:21:27;;;;;;;16.67;1.98;;;4.80;99.90;;;;;;4860890;29;20089;-87
2023/02/25 09:23:53;;;;;;;14.05;2.05;;;4.80;99.90;;;;;;4844650;29;20082;-87
2023/02/25 09:26:20;;;;;;;14.93;1.90;;;4.90;99.90;;;;;;4843637;29;20049;-91
2023/02/25 09:28:46;;;;;;;14.23;2.28;;;4.90;99.90;;;;;;4861616;29;20053;-89
2023/02/25 09:31:14;;;;;;;9.80;1.65;;;4.90;99.90;;;;;;4845042;29;20402;-90
2023/02/25 09:33:43;;;;;;;10.13;1.80;;;5.00;99.90;;;;;;4861113;29;20045;-90
2023/02/25 09:36:17;;;;;;;10.18;1.63;;;5.00;99.90;;;;;;4845491;29;20116;-90
2023/02/25 09:38:44;;;;;;;10.00;2.10;;;5.00;99.90;;;;;;4844985;29;20064;-91
2023/02/25 09:41:19;;;;;;;10.27;1.67;;;5.10;99.90;;;;;;4844022;29;20053;-89
2023/02/25 09:43:46;;;;;;;13.68;1.90;;;5.10;99.90;;;;;;4844672;29;20140;-90
2023/02/25 09:46:17;;;;;;;10.85;1.83;;;5.20;99.90;;;;;;4843960;29;20053;-88
2023/02/25 09:48:52;;;;;;;10.45;1.65;;;5.20;99.90;;;;;;4844062;29;20060;-89
2023/02/25 09:51:25;;;;;;;11.32;1.63;;;5.20;99.90;;;;;;4861509;29;20097;-91
2023/02/25 09:54:05;;;;;;;15.77;2.08;;;5.30;99.90;;;;;;4863317;29;20045;-94
2023/02/25 09:56:32;;;;;;;10.60;1.73;;;5.30;99.90;;;;;;4861900;29;20128;-95
2023/02/25 09:58:58;;;;;;;12.82;1.83;;;5.30;99.90;;;;;;4846357;29;20049;-95
2023/02/25 10:01:35;;;;;;;13.70;1.90;;;5.40;99.90;;;;;;4845289;29;20056;-95
2023/02/25 10:04:18;;;;;;;13.75;1.80;;;5.40;99.90;;;;;;4863379;29;20033;-96
2023/02/25 10:06:51;;;;;;;12.23;2.17;;;5.40;99.90;;;;;;4870503;29;20569;-95
2023/02/25 10:09:44;;;;;;;12.15;1.83;;;5.50;99.90;;;;;;4851350;29;20050;-95
2023/02/25 10:12:16;;;;;;;13.13;1.92;;;5.40;99.90;;;;;;4864681;29;20131;-96
2023/02/25 10:14:55;;;;;;;13.80;2.10;;;5.50;99.90;;;;;;4847093;29;20071;-96
2023/02/25 10:17:43;;;;;;;13.98;1.90;;;5.50;99.90;;;;;;4862606;29;20414;-95
2023/02/25 10:20:24;;;;;;;9.63;2.00;;;5.50;99.90;;;;;;4846973;29;20081;-94
2023/02/25 10:23:15;;;;;;;15.23;2.13;;;5.50;99.90;;;;;;4851040;29;20099;-95
2023/02/25 10:25:51;;;;;;;13.52;2.53;;;5.60;99.90;;;;;;4850660;29;20057;-94
2023/02/25 10:28:19;;;;;;;12.65;1.73;;;5.70;99.90;;;;;;4849263;29;20140;-93
2023/02/25 10:31:04;;;;;;;9.60;1.60;;;5.70;99.90;;;;;;4849566;29;20057;-94
2023/02/25 10:33:35;;;;;;;11.20;1.60;;;5.80;99.90;;;;;;4849396;29;20041;-95
2023/02/25 10:36:13;;;;;;;12.68;2.05;;;5.80;99.90;;;;;;4862042;29;20450;-92
2023/02/25 10:38:49;;;;;;;9.32;1.70;;;5.90;99.90;;;;;;4883176;29;20053;-88
2023/02/25 10:41:15;;;;;;;10.25;1.70;;;5.90;99.90;;;;;;4870895;29;20129;-87
2023/02/25 10:43:42;;;;;;;12.20;1.92;;;5.90;99.90;;;;;;4863332;29;20050;-88
2023/02/25 10:46:22;;;;;;;10.68;1.42;;;6.00;99.90;;;;;;4860918;24;20051;-88
2023/02/25 10:49:00;;;;;;;8.82;1.98;;;6.00;99.90;;;;;;4862798;29;20140;-88
2023/02/25 10:51:28;;;;;;;7.80;1.48;;;6.00;99.90;;;;;;4861312;29;20478;-89
2023/02/25 10:53:57;;;;;;;9.82;1.80;;;6.00;99.90;;;;;;4859433;29;20133;-86
2023/02/25 10:56:42;;;;;;;8.60;1.70;;;6.10;99.90;;;;;;4854048;29;20179;-88
2023/02/25 10:59:39;;;;;;;11.23;1.38;;;6.10;99.90;;;;;;4862077;29;20132;-88
2023/02/25 11:02:30;;;;;;;10.02;1.55;;;6.10;99.90;;;;;;4853652;29;20057;-88
2023/02/25 11:04:56;;;;;;;11.55;1.55;;;6.10;99.90;;;;;;4857904;29;20057;-89
2023/02/25 11:07:38;;;;;;;11.27;1.60;;;6.20;99.90;;;;;;4861473;29;20041;-88
2023/02/25 11:10:15;;;;;;;8.48;1.25;;;6.20;99.90;;;;;;4863587;29;20132;-92
2023/02/25 11:12:52;;;;;;;7.70;1.52;;;6.20;99.90;;;;;;4860075;29;20101;-91
2023/02/25 11:15:18;;;;;;;9.70;1.45;;;6.20;99.90;;;;;;4863270;29;20117;-91
2023/02/25 11:17:44;;;;;;;10.52;1.52;;;6.30;99.90;;;;;;4848156;29;20102;-93
2023/02/25 11:20:24;;;;;;;4.75;0.82;;;6.30;99.90;;;;;;4853165;29;20041;-92
2023/02/25 11:22:56;;;;;;;9.10;1.60;;;6.30;99.90;;;;;;4867868;29;20505;-88
2023/02/25 11:25:42;;;;;;;12.80;1.52;;;6.30;99.90;;;;;;4861883;29;20041;-91
2023/02/25 11:28:22;;;;;;;8.13;1.38;;;6.40;99.90;;;;;;4863784;29;20053;-92
2023/02/25 11:30:47;;;;;;;7.63;1.30;;;6.50;99.90;;;;;;4862273;29;20573;-87
2023/02/25 11:33:35;;;;;;;9.85;1.40;;;6.50;99.90;;;;;;4861805;29;20050;-90
2023/02/25 11:36:02;;;;;;;12.73;1.40;;;6.50;99.90;;;;;;4863559;29;20052;-86
2023/02/25 11:38:31;;;;;;;9.05;1.10;;;6.50;99.90;;;;;;4864590;29;20049;-91
2023/02/25 11:40:56;;;;;;;11.23;1.30;;;6.60;99.90;;;;;;4862925;29;20055;-91
2023/02/25 11:43:26;;;;;;;9.10;1.02;;;6.60;99.90;;;;;;4864253;29;20045;-94
2023/02/25 11:46:01;;;;;;;12.90;1.58;;;6.70;99.90;;;;;;4863368;29;20066;-87
2023/02/25 11:48:57;;;;;;;8.95;1.10;;;6.70;99.90;;;;;;4845160;29;20049;-88
2023/02/25 11:51:32;;;;;;;9.95;1.90;;;6.80;99.90;;;;;;4846293;29;20105;-90
2023/02/25 11:54:38;;;;;;;8.63;1.40;;;6.80;99.90;;;;;;4845566;29;20083;-88
2023/02/25 11:57:13;;;;;;;7.68;1.17;;;6.80;99.90;;;;;;4844303;29;20141;-88
2023/02/25 12:00:13;;;;;;;9.65;1.20;;;6.90;99.90;;;;;;4829876;29;20550;-89
2023/02/25 12:02:46;;;;;;;8.73;1.30;;;6.90;99.90;;;;;;4861503;29;20128;-87
2023/02/25 12:05:58;;;;;;;9.20;1.50;;;6.90;99.90;;;;;;4844285;29;20056;-89
2023/02/25 12:08:45;;;;;;;8.27;1.08;;;6.90;99.90;;;;;;4835297;29;20129;-92
2023/02/25 12:11:55;;;;;;;9.23;1.45;;;6.80;98.50;;;;;;4857582;29;20041;-90
2023/02/25 12:15:09;;;;;;;6.88;1.08;;;6.80;98.90;;;;;;4806043;29;20610;-90
2023/02/25 12:18:11;;;;;;;8.32;1.40;;;6.80;98.90;;;;;;4804249;29;20055;-91
2023/02/25 12:21:08;;;;;;;9.30;1.20;;;6.80;99.90;;;;;;4840038;29;20041;-96
2023/02/25 12:23:54;;;;;;;7.38;1.20;;;7.00;99.90;;;;;;4857262;29;20050;-96
2023/02/25 12:26:42;;;;;;;7.65;1.30;;;7.00;99.90;;;;;;4860723;29;20060;-93
2023/02/25 12:29:45;;;;;;;9.73;1.98;;;7.10;99.90;;;;;;4847271;29;20054;-93
2023/02/25 12:32:26;;;;;;;7.30;1.35;;;7.10;99.90;;;;;;4867396;29;20049;-95
2023/02/25 12:35:19;;;;;;;10.82;1.42;;;7.20;99.90;;;;;;4867276;29;20052;-94
2023/02/25 12:38:03;;;;;;;7.95;1.40;;;7.20;99.90;;;;;;4845241;29;20128;-96
2023/02/25 12:40:39;;;;;;;11.02;1.33;;;7.30;99.90;;;;;;4870663;29;20048;-96
2023/02/25 12:43:34;;;;;;;9.13;1.33;;;7.30;99.90;;;;;;4873973;29;20052;-96
2023/02/25 12:46:15;;;;;;;7.45;1.20;;;7.30;99.90;;;;;;4841684;29;20107;-96
2023/02/25 12:49:08;;;;;;;10.60;1.30;;;7.30;99.90;;;;;;4872410;29;20049;-96
2023/02/25 12:52:02;;;;;;;6.45;1.25;;;7.40;99.90;;;;;;4874637;29;20115;-96
2023/02/25 12:54:56;;;;;;;7.50;1.10;;;7.40;99.80;;;;;;4868732;29;20088;-94
2023/02/25 12:57:30;;;;;;;12.52;1.60;;;7.40;99.90;;;;;;4921151;23;20049;-96
2023/02/25 13:00:21;;;;;;;9.55;1.55;;;7.40;99.90;;;;;;4869330;29;20061;-95
2023/02/25 13:03:08;;;;;;;7.32;1.17;;;7.50;99.90;;;;;;4880277;29;20053;-94
2023/02/25 13:05:49;;;;;;;9.70;1.42;;;7.50;99.90;;;;;;4877881;29;20196;-96
2023/02/25 13:08:36;;;;;;;10.50;1.38;;;7.60;99.90;;;;;;4875817;29;20053;-96
2023/02/25 13:11:39;;;;;;;14.80;1.90;;;7.60;99.90;;;;;;4864772;29;20045;-92
2023/02/25 13:14:07;;;;;;;11.43;1.60;;;7.60;99.90;;;;;;4878624;29;20049;-91
2023/02/25 13:16:42;;;;;;;8.18;1.55;;;7.60;99.90;;;;;;4881075;29;20041;-94
2023/02/25 13:19:18;;;;;;;7.78;1.30;;;7.60;99.90;;;;;;4883416;29;20056;-96